createdAt,value
2017-10-18T00:01:14.133Z,100064.19
2017-10-18T00:03:40.072Z,100062.11
2017-10-18T00:06:06.025Z,100062.50
2017-10-18T00:08:31.976Z,100057.84
2017-10-18T00:10:57.912Z,100060.41
2017-10-18T00:13:23.844Z,100065.05
2017-10-18T00:15:49.812Z,100062.50
2017-10-18T00:18:15.754Z,100066.31
2017-10-18T00:20:41.698Z,100061.67
2017-10-18T00:23:07.636Z,100063.77
2017-10-18T00:25:33.584Z,100066.33
2017-10-18T00:27:59.543Z,100067.53
2017-10-18T00:30:25.488Z,100059.92
2017-10-18T00:32:51.424Z,100062.48
2017-10-18T00:35:17.367Z,100058.29
2017-10-18T00:37:43.298Z,100059.53
2017-10-18T00:40:09.284Z,100060.34
2017-10-18T00:42:35.241Z,100059.08
2017-10-18T00:45:01.199Z,100061.20
2017-10-18T00:47:27.145Z,100056.97
2017-10-18T00:49:53.100Z,100057.81
2017-10-18T00:52:19.024Z,100054.02
2017-10-18T00:54:44.983Z,100051.48
2017-10-18T00:57:10.952Z,100054.02
2017-10-18T00:59:36.894Z,100043.46
2017-10-18T01:02:02.836Z,100043.45
2017-10-18T01:04:28.784Z,100048.50
2017-10-18T01:06:54.730Z,100049.78
2017-10-18T01:09:20.668Z,100039.61
2017-10-18T01:11:46.598Z,100040.06
2017-10-18T01:14:12.596Z,100038.00
2017-10-18T01:16:38.542Z,100036.75
2017-10-18T01:19:04.510Z,100035.90
2017-10-18T01:21:30.469Z,100030.38
2017-10-18T01:23:56.399Z,100026.63
2017-10-18T01:26:22.384Z,100032.10
2017-10-18T01:28:48.332Z,100033.76
2017-10-18T01:31:14.319Z,100031.64
2017-10-18T01:33:40.275Z,100032.03
2017-10-18T01:36:06.230Z,100036.73
2017-10-18T01:38:32.186Z,100027.88
2017-10-18T01:40:58.140Z,100027.43
2017-10-18T01:43:24.115Z,100029.14
2017-10-18T01:45:50.052Z,100029.53
2017-10-18T01:48:16.012Z,100026.14
2017-10-18T01:50:41.967Z,100021.13
2017-10-18T01:53:07.943Z,100019.45
2017-10-18T01:55:33.892Z,100013.52
2017-10-18T01:57:59.872Z,100006.76
2017-10-18T02:00:25.843Z,100011.39
2017-10-18T02:02:51.776Z,100015.19
2017-10-18T02:05:17.733Z,100010.98
2017-10-18T02:07:43.717Z,100008.81
2017-10-18T02:10:09.679Z,100006.80
2017-10-18T02:12:35.623Z,100006.77
2017-10-18T02:15:01.563Z,100006.75
2017-10-18T02:17:27.500Z,100002.05
2017-10-18T02:19:53.488Z,100008.42
2017-10-18T02:22:19.419Z,100000.33
2017-10-18T02:24:45.356Z,100002.49
2017-10-18T02:27:11.292Z,99994.91
2017-10-18T02:29:37.246Z,99993.23
2017-10-18T02:32:03.204Z,99989.03
2017-10-18T02:34:29.160Z,99989.87
2017-10-18T02:36:55.108Z,99987.77
2017-10-18T02:39:21.069Z,99996.98
2017-10-18T02:41:47.009Z,99985.22
2017-10-18T02:44:12.992Z,99991.96
2017-10-18T02:46:38.916Z,99992.77
2017-10-18T02:49:04.839Z,99984.78
2017-10-18T02:51:30.756Z,99986.89
2017-10-18T02:53:56.679Z,99994.47
2017-10-18T02:56:22.629Z,99986.02
2017-10-18T02:58:48.624Z,99984.78
2017-10-18T03:01:14.552Z,99979.72
2017-10-18T03:03:40.500Z,99976.34
2017-10-18T03:06:06.470Z,99984.74
2017-10-18T03:08:32.426Z,99981.31
2017-10-18T03:10:58.371Z,99985.20
2017-10-18T03:13:24.351Z,99981.36
2017-10-18T03:15:50.318Z,99975.45
2017-10-18T03:18:16.263Z,99974.22
2017-10-18T03:20:42.211Z,99973.42
2017-10-18T03:23:08.154Z,99971.69
2017-10-18T03:25:34.091Z,99967.52
2017-10-18T03:28:00.028Z,99966.66
2017-10-18T03:30:25.982Z,99965.39
2017-10-18T03:32:51.942Z,99965.39
2017-10-18T03:35:17.958Z,99957.82
2017-10-18T03:37:43.900Z,99957.80
2017-10-18T03:40:09.837Z,99956.83
2017-10-18T03:42:35.781Z,99960.77
2017-10-18T03:45:01.722Z,99959.52
2017-10-18T03:47:27.691Z,99959.50
2017-10-18T03:49:53.659Z,99953.62
2017-10-18T03:52:19.632Z,99956.94
2017-10-18T03:54:45.559Z,99947.23
2017-10-18T03:57:11.518Z,99949.40
2017-10-18T03:59:37.454Z,99952.73
2017-10-18T04:02:03.413Z,99937.59
2017-10-18T04:04:29.337Z,99933.36
2017-10-18T04:06:55.279Z,99938.39
2017-10-18T04:09:21.227Z,99936.30
2017-10-18T04:11:47.155Z,99939.66
2017-10-18T04:14:13.088Z,99938.30
2017-10-18T04:16:39.031Z,99936.20
2017-10-18T04:19:04.967Z,99934.95
2017-10-18T04:21:30.915Z,99932.41
2017-10-18T04:23:56.872Z,99942.52
2017-10-18T04:26:22.831Z,99930.72
2017-10-18T04:28:48.793Z,99937.14
2017-10-18T04:31:14.762Z,99926.58
2017-10-18T04:33:40.703Z,99927.47
2017-10-18T04:36:06.664Z,99927.38
2017-10-18T04:38:32.615Z,99919.79
2017-10-18T04:40:58.553Z,99920.18
2017-10-18T04:43:24.506Z,99924.09
2017-10-18T04:45:50.446Z,99921.16
2017-10-18T04:48:16.375Z,99917.77
2017-10-18T04:50:42.345Z,99914.72
2017-10-18T04:53:08.292Z,99910.96
2017-10-18T04:55:34.290Z,99914.81
2017-10-18T04:58:00.239Z,99910.61
2017-10-18T05:00:26.171Z,99907.64
2017-10-18T05:02:52.121Z,99902.61
2017-10-18T05:05:18.219Z,99895.37
2017-10-18T05:07:44.178Z,99889.48
2017-10-18T05:10:10.115Z,99891.58
2017-10-18T05:12:36.061Z,99888.69
2017-10-18T05:15:01.987Z,99881.96
2017-10-18T05:17:27.954Z,99881.05
2017-10-18T05:19:53.891Z,99880.23
2017-10-18T05:22:19.827Z,99879.45
2017-10-18T05:24:45.767Z,99882.81
2017-10-18T05:27:11.740Z,99879.02
2017-10-18T05:29:37.703Z,99874.38
2017-10-18T05:32:03.647Z,99879.45
2017-10-18T05:34:29.579Z,99880.23
2017-10-18T05:36:55.511Z,99883.98
2017-10-18T05:39:21.481Z,99888.19
2017-10-18T05:41:47.449Z,99885.24
2017-10-18T05:44:13.405Z,99878.09
2017-10-18T05:46:39.331Z,99878.94
2017-10-18T05:49:05.259Z,99876.39
2017-10-18T05:51:31.255Z,99880.19
2017-10-18T05:53:57.178Z,99876.84
2017-10-18T05:56:23.147Z,99875.58
2017-10-18T05:58:49.083Z,99868.05
2017-10-18T06:01:15.031Z,99875.21
2017-10-18T06:03:40.979Z,99879.86
2017-10-18T06:06:06.947Z,99880.71
2017-10-18T06:08:32.941Z,99880.71
2017-10-18T06:10:58.961Z,99882.81
2017-10-18T06:13:24.932Z,99876.92
2017-10-18T06:15:50.886Z,99885.36
2017-10-18T06:18:16.851Z,99885.76
2017-10-18T06:20:42.785Z,99890.00
2017-10-18T06:23:08.754Z,99887.03
2017-10-18T06:25:34.717Z,99886.59
2017-10-18T06:28:00.656Z,99888.30
2017-10-18T06:30:26.733Z,99891.63
2017-10-18T06:32:52.695Z,99891.18
2017-10-18T06:35:18.651Z,99886.94
2017-10-18T06:37:44.591Z,99890.73
2017-10-18T06:40:10.556Z,99895.81
2017-10-18T06:42:36.519Z,99897.86
2017-10-18T06:45:02.475Z,99894.83
2017-10-18T06:47:28.425Z,99895.66
2017-10-18T06:49:54.369Z,99895.67
2017-10-18T06:52:20.315Z,99903.67
2017-10-18T06:54:46.244Z,99902.06
2017-10-18T06:57:12.204Z,99902.75
2017-10-18T06:59:38.141Z,99908.05
2017-10-18T07:02:04.101Z,99913.15
2017-10-18T07:04:30.046Z,99907.54
2017-10-18T07:06:56.000Z,99911.73
2017-10-18T07:09:21.969Z,99913.91
2017-10-18T07:11:47.925Z,99918.42
2017-10-18T07:14:13.950Z,99915.81
2017-10-18T07:16:39.915Z,99915.36
2017-10-18T07:19:05.873Z,99907.94
2017-10-18T07:21:31.817Z,99909.93
2017-10-18T07:23:57.759Z,99916.58
2017-10-18T07:26:23.687Z,99913.79
2017-10-18T07:28:49.610Z,99910.02
2017-10-18T07:31:15.611Z,99906.69
2017-10-18T07:33:41.600Z,99908.08
2017-10-18T07:36:07.574Z,99916.13
2017-10-18T07:38:33.506Z,99906.36
2017-10-18T07:40:59.447Z,99902.20
2017-10-18T07:43:25.405Z,99899.36
2017-10-18T07:45:51.331Z,99901.31
2017-10-18T07:48:17.310Z,99892.70
2017-10-18T07:50:43.245Z,99894.03
2017-10-18T07:53:09.191Z,99894.62
2017-10-18T07:55:35.125Z,99891.20
2017-10-18T07:58:01.079Z,99883.62
2017-10-18T08:00:27.049Z,99895.67
2017-10-18T08:02:53.025Z,99893.98
2017-10-18T08:05:18.966Z,99891.84
2017-10-18T08:07:44.933Z,99895.55
2017-10-18T08:10:10.968Z,99899.20
2017-10-18T08:12:36.962Z,99894.09
2017-10-18T08:15:02.905Z,99897.25
2017-10-18T08:17:28.867Z,99895.29
2017-10-18T08:19:54.807Z,99893.76
2017-10-18T08:22:20.758Z,99889.11
2017-10-18T08:24:46.745Z,99897.47
2017-10-18T08:27:12.699Z,99890.70
2017-10-18T08:29:38.674Z,99890.30
2017-10-18T08:32:04.646Z,99885.41
2017-10-18T08:34:30.610Z,99883.35
2017-10-18T08:36:56.596Z,99878.70
2017-10-18T08:39:22.557Z,99883.32
2017-10-18T08:41:48.546Z,99881.50
2017-10-18T08:44:14.502Z,99878.40
2017-10-18T08:46:40.459Z,99875.52
2017-10-18T08:49:06.407Z,99874.09
2017-10-18T08:51:32.365Z,99870.55
2017-10-18T08:53:58.386Z,99870.25
2017-10-18T08:56:24.344Z,99860.88
2017-10-18T08:58:50.311Z,99859.89
2017-10-18T09:01:16.270Z,99863.41
2017-10-18T09:03:42.244Z,99863.25
2017-10-18T09:06:08.203Z,99864.11
2017-10-18T09:08:34.142Z,99870.05
2017-10-18T09:11:00.074Z,99863.63
2017-10-18T09:13:26.082Z,99865.63
2017-10-18T09:15:52.051Z,99853.31
2017-10-18T09:18:18.021Z,99856.31
2017-10-18T09:20:44.020Z,99858.34
2017-10-18T09:23:09.971Z,99865.41
2017-10-18T09:25:35.908Z,99858.05
2017-10-18T09:28:01.923Z,99857.68
2017-10-18T09:30:27.886Z,99855.56
2017-10-18T09:32:53.943Z,99859.31
2017-10-18T09:35:19.904Z,99860.47
2017-10-18T09:37:45.845Z,99855.16
2017-10-18T09:40:11.785Z,99849.97
2017-10-18T09:42:37.773Z,99847.72
2017-10-18T09:45:03.737Z,99844.16
2017-10-18T09:47:29.697Z,99842.47
2017-10-18T09:49:55.652Z,99837.86
2017-10-18T09:52:21.604Z,99843.14
2017-10-18T09:54:47.679Z,99841.74
2017-10-18T09:57:13.619Z,99837.76
2017-10-18T09:59:39.562Z,99833.19
2017-10-18T10:02:05.499Z,99833.09
2017-10-18T10:04:31.456Z,99831.16
2017-10-18T10:06:57.402Z,99832.73
2017-10-18T10:09:23.341Z,99830.14
2017-10-18T10:11:49.290Z,99830.14
2017-10-18T10:14:15.251Z,99822.72
2017-10-18T10:16:41.178Z,99820.02
2017-10-18T10:19:07.130Z,99824.75
2017-10-18T10:21:33.069Z,99821.26
2017-10-18T10:23:59.017Z,99819.81
2017-10-18T10:26:25.021Z,99817.37
2017-10-18T10:28:50.986Z,99813.16
2017-10-18T10:31:16.934Z,99812.17
2017-10-18T10:33:42.865Z,99816.64
2017-10-18T10:36:08.791Z,99812.39
2017-10-18T10:38:34.832Z,99808.39
2017-10-18T10:41:00.765Z,99806.52
2017-10-18T10:43:26.696Z,99806.16
2017-10-18T10:45:52.638Z,99808.81
2017-10-18T10:48:18.582Z,99804.64
2017-10-18T10:50:44.662Z,99801.84
2017-10-18T10:53:10.619Z,99804.53
2017-10-18T10:55:36.553Z,99802.30
2017-10-18T10:58:02.480Z,99799.72
2017-10-18T11:00:28.401Z,99796.52
2017-10-18T11:02:54.337Z,99795.50
2017-10-18T11:05:20.312Z,99793.13
2017-10-18T11:07:46.274Z,99787.00
2017-10-18T11:10:12.210Z,99787.11
2017-10-18T11:12:38.152Z,99782.08
2017-10-18T11:15:04.106Z,99779.31
2017-10-18T11:17:30.083Z,99779.84
2017-10-18T11:19:56.002Z,99777.52
2017-10-18T11:22:21.938Z,99779.80
2017-10-18T11:24:47.877Z,99771.25
2017-10-18T11:27:13.834Z,99770.79
2017-10-18T11:29:39.843Z,99776.48
2017-10-18T11:32:05.788Z,99775.23
2017-10-18T11:34:31.715Z,99770.79
2017-10-18T11:36:57.652Z,99766.16
2017-10-18T11:39:23.586Z,99767.58
2017-10-18T11:41:49.551Z,99757.70
2017-10-18T11:44:15.504Z,99760.20
2017-10-18T11:46:41.451Z,99751.70
2017-10-18T11:49:07.383Z,99753.62
2017-10-18T11:51:33.321Z,99743.16
2017-10-18T11:53:59.268Z,99746.55
2017-10-18T11:56:25.487Z,99741.34
2017-10-18T11:58:51.448Z,99743.42
2017-10-18T12:01:17.408Z,99735.77
2017-10-18T12:03:43.400Z,99737.13
2017-10-18T12:06:09.361Z,99732.80
2017-10-18T12:08:35.303Z,99732.38
2017-10-18T12:11:01.239Z,99728.47
2017-10-18T12:13:27.173Z,99722.63
2017-10-18T12:15:53.339Z,99717.03
2017-10-18T12:18:19.296Z,99716.88
2017-10-18T12:20:45.239Z,99715.10
2017-10-18T12:23:11.215Z,99712.86
2017-10-18T12:25:37.194Z,99711.77
2017-10-18T12:28:03.162Z,99709.03
2017-10-18T12:30:29.116Z,99703.89
2017-10-18T12:32:55.051Z,99698.78
2017-10-18T12:35:20.997Z,99690.79
2017-10-18T12:37:46.932Z,99692.61
2017-10-18T12:40:12.925Z,99693.08
2017-10-18T12:42:38.880Z,99688.09
2017-10-18T12:45:04.808Z,99686.70
2017-10-18T12:47:30.798Z,99678.27
2017-10-18T12:49:56.758Z,99688.44
2017-10-18T12:52:22.712Z,99684.19
2017-10-18T12:54:48.673Z,99684.10
2017-10-18T12:57:14.620Z,99681.86
2017-10-18T12:59:40.599Z,99678.88
2017-10-18T13:02:06.606Z,99681.52
2017-10-18T13:04:32.597Z,99683.72
2017-10-18T13:06:58.534Z,99668.30
2017-10-18T13:09:24.483Z,99673.82
2017-10-18T13:11:50.425Z,99667.33
2017-10-18T13:14:16.690Z,99668.61
2017-10-18T13:16:42.693Z,99664.06
2017-10-18T13:19:08.655Z,99661.20
2017-10-18T13:21:34.602Z,99662.98
2017-10-18T13:24:00.541Z,99665.09
2017-10-18T13:26:26.498Z,99661.38
2017-10-18T13:28:52.460Z,99658.70
2017-10-18T13:31:18.440Z,99653.51
2017-10-18T13:33:44.425Z,99654.88
2017-10-18T13:36:10.360Z,99655.77
2017-10-18T13:38:36.330Z,99653.70
2017-10-18T13:41:02.295Z,99659.81
2017-10-18T13:43:28.309Z,99661.05
2017-10-18T13:45:54.234Z,99656.61
2017-10-18T13:48:20.173Z,99655.89
2017-10-18T13:50:46.102Z,99655.02
2017-10-18T13:53:12.082Z,99653.88
2017-10-18T13:55:38.086Z,99652.59
2017-10-18T13:58:04.073Z,99656.30
2017-10-18T14:00:30.021Z,99658.67
2017-10-18T14:02:55.988Z,99655.39
2017-10-18T14:05:21.931Z,99662.16
2017-10-18T14:07:47.864Z,99660.86
2017-10-18T14:10:13.799Z,99655.55
2017-10-18T14:12:39.753Z,99662.31
2017-10-18T14:15:05.735Z,99657.08
2017-10-18T14:17:31.820Z,99657.43
2017-10-18T14:19:57.857Z,99665.15
2017-10-18T14:22:23.791Z,99664.79
2017-10-18T14:24:49.749Z,99663.39
2017-10-18T14:27:16.018Z,99661.33
2017-10-18T14:29:42.003Z,99665.56
2017-10-18T14:32:07.937Z,99665.23
2017-10-18T14:34:34.090Z,99666.83
2017-10-18T14:37:00.041Z,99675.95
2017-10-18T14:39:25.993Z,99672.63
2017-10-18T14:41:51.978Z,99672.78
2017-10-18T14:44:17.953Z,99674.75
2017-10-18T14:46:43.901Z,99673.48
2017-10-18T14:49:09.856Z,99678.16
2017-10-18T14:51:35.824Z,99675.56
2017-10-18T14:54:01.762Z,99677.73
2017-10-18T14:56:27.704Z,99680.97
2017-10-18T14:58:53.653Z,99678.89
2017-10-18T15:01:19.589Z,99680.98
2017-10-18T15:03:45.552Z,99681.11
2017-10-18T15:06:11.549Z,99682.91
2017-10-18T15:08:37.493Z,99685.89
2017-10-18T15:11:03.459Z,99685.45
2017-10-18T15:13:29.415Z,99686.91
2017-10-18T15:15:55.434Z,99687.92
2017-10-18T15:18:21.390Z,99692.61
2017-10-18T15:20:47.431Z,99688.34
2017-10-18T15:23:13.441Z,99696.69
2017-10-18T15:25:39.518Z,99698.77
2017-10-18T15:28:05.473Z,99692.77
2017-10-18T15:30:31.452Z,99695.09
2017-10-18T15:32:57.441Z,99693.25
2017-10-18T15:35:23.404Z,99691.84
2017-10-18T15:37:49.399Z,99695.16
2017-10-18T15:40:15.380Z,99692.69
2017-10-18T15:42:41.379Z,99697.13
2017-10-18T15:45:07.468Z,99694.11
2017-10-18T15:47:33.541Z,99686.28
2017-10-18T15:49:59.554Z,99693.84
2017-10-18T15:52:25.536Z,99685.47
2017-10-18T15:54:51.494Z,99689.59
2017-10-18T15:57:17.643Z,99694.97
2017-10-18T15:59:43.601Z,99685.42
2017-10-18T16:02:09.590Z,99690.67
2017-10-18T16:04:35.545Z,99688.81
2017-10-18T16:07:01.527Z,99695.47
2017-10-18T16:09:27.591Z,99702.25
2017-10-18T16:11:53.581Z,99702.89
2017-10-18T16:14:19.544Z,99710.92
2017-10-18T16:16:45.527Z,99714.39
2017-10-18T16:19:11.454Z,99715.53
2017-10-18T16:21:39.427Z,99709.79
2017-10-18T16:24:05.375Z,99716.72
2017-10-18T16:26:31.332Z,99723.52
2017-10-18T16:28:57.339Z,99718.10
2017-10-18T16:31:24.355Z,99718.56
2017-10-18T16:36:26.468Z,99718.36
2017-10-18T16:38:52.413Z,99717.44
2017-10-18T16:41:18.348Z,99722.52
2017-10-18T16:43:44.487Z,99730.84
2017-10-18T16:46:10.456Z,99731.36
2017-10-18T16:48:36.401Z,99732.31
2017-10-18T16:51:02.377Z,99726.73
2017-10-18T16:53:28.325Z,99729.80
2017-10-18T16:55:54.303Z,99737.20
2017-10-18T16:58:20.285Z,99734.59
2017-10-18T17:00:46.238Z,99736.69
2017-10-18T17:03:12.303Z,99737.84
2017-10-18T17:05:38.259Z,99737.84
2017-10-18T17:08:04.219Z,99739.15
2017-10-18T17:10:30.149Z,99736.11
2017-10-18T17:12:56.124Z,99733.98
2017-10-18T17:15:22.082Z,99738.38
2017-10-18T17:17:48.038Z,99733.41
2017-10-18T17:20:14.018Z,99736.05
2017-10-18T17:22:40.066Z,99738.86
2017-10-18T17:25:06.034Z,99731.80
2017-10-18T17:27:31.992Z,99738.08
2017-10-18T17:29:58.032Z,99736.27
2017-10-18T17:32:24.041Z,99732.98
2017-10-18T17:34:50.052Z,99731.32
2017-10-18T17:37:16.040Z,99740.97
2017-10-18T17:39:42.061Z,99728.78
2017-10-18T17:42:08.315Z,99729.85
2017-10-18T17:44:34.277Z,99723.83
2017-10-18T17:47:00.982Z,99720.52
2017-10-18T17:49:27.045Z,99723.06
2017-10-18T17:51:52.987Z,99730.53
2017-10-18T17:54:18.992Z,99730.90
2017-10-18T17:56:44.936Z,99730.98
2017-10-18T17:59:10.895Z,99733.97
2017-10-18T18:01:36.850Z,99730.53
2017-10-18T18:04:02.799Z,99731.78
2017-10-18T18:06:28.805Z,99726.70
2017-10-18T18:08:54.769Z,99734.37
2017-10-18T18:11:20.738Z,99728.06
2017-10-18T18:13:46.678Z,99726.69
2017-10-18T18:16:12.639Z,99723.33
2017-10-18T18:18:38.566Z,99719.69
2017-10-18T18:21:04.543Z,99717.30
2017-10-18T18:23:30.485Z,99709.95
2017-10-18T18:25:56.429Z,99723.45
2017-10-18T18:28:22.423Z,99726.22
2017-10-18T18:30:49.980Z,99725.92
2017-10-18T18:33:15.911Z,99717.65
2017-10-18T18:35:41.891Z,99719.97
2017-10-18T18:38:07.853Z,99714.31
2017-10-18T18:40:34.939Z,99718.45
2017-10-18T18:43:00.924Z,99719.47
2017-10-18T18:45:27.109Z,99712.16
2017-10-18T18:47:53.088Z,99712.05
2017-10-18T18:50:19.030Z,99712.77
2017-10-18T18:52:44.997Z,99709.31
2017-10-18T18:55:11.564Z,99713.12
2017-10-18T18:57:37.569Z,99708.45
2017-10-18T19:00:03.578Z,99707.83
2017-10-18T19:02:29.606Z,99705.75
2017-10-18T19:04:55.555Z,99713.61
2017-10-18T19:07:21.515Z,99709.95
2017-10-18T19:09:47.464Z,99709.38
2017-10-18T19:12:13.493Z,99704.42
2017-10-18T19:14:39.517Z,99703.69
2017-10-18T19:17:05.839Z,99702.06
2017-10-18T19:19:31.785Z,99706.27
2017-10-18T19:21:57.705Z,99712.64
2017-10-18T19:24:23.677Z,99710.97
2017-10-18T19:26:49.611Z,99711.55
2017-10-18T19:29:15.596Z,99711.23
2017-10-18T19:31:41.547Z,99715.01
2017-10-18T19:34:07.500Z,99716.87
2017-10-18T19:36:33.472Z,99705.17
2017-10-18T19:38:59.434Z,99709.38
2017-10-18T19:41:25.388Z,99712.50
2017-10-18T19:43:51.340Z,99711.29
2017-10-18T19:46:19.398Z,99710.56
2017-10-18T19:48:45.341Z,99708.48
2017-10-18T19:51:11.342Z,99705.42
2017-10-18T19:53:38.564Z,99707.73
2017-10-18T19:56:04.511Z,99706.35
2017-10-18T19:58:30.440Z,99711.92
2017-10-18T20:00:56.413Z,99709.39
2017-10-18T20:03:22.456Z,99709.20
2017-10-18T20:05:48.433Z,99705.09
2017-10-18T20:08:14.392Z,99704.46
2017-10-18T20:10:40.446Z,99702.59
2017-10-18T20:13:06.387Z,99701.84
2017-10-18T20:15:32.336Z,99702.23
2017-10-18T20:17:58.358Z,99700.28
2017-10-18T20:20:24.309Z,99700.62
2017-10-18T20:22:50.298Z,99697.22
2017-10-18T20:25:16.267Z,99701.34
2017-10-18T20:27:42.330Z,99700.19
2017-10-18T20:30:08.306Z,99699.81
2017-10-18T20:32:34.371Z,99702.05
2017-10-18T20:35:00.320Z,99701.09
2017-10-18T20:37:26.268Z,99698.64
2017-10-18T20:39:52.233Z,99700.84
2017-10-18T20:42:18.192Z,99696.47
2017-10-18T20:44:44.138Z,99702.84
2017-10-18T20:47:10.115Z,99710.94
2017-10-18T20:49:36.082Z,99700.86
2017-10-18T20:52:02.194Z,99705.91
2017-10-18T20:54:28.156Z,99707.73
2017-10-18T20:56:54.093Z,99704.77
2017-10-18T20:59:20.055Z,99699.84
2017-10-18T21:01:46.076Z,99698.50
2017-10-18T21:04:12.980Z,99695.49
2017-10-18T21:06:39.021Z,99692.13
2017-10-18T21:09:05.008Z,99697.00
2017-10-18T21:11:30.979Z,99698.81
2017-10-18T21:13:56.949Z,99698.02
2017-10-18T21:16:23.004Z,99691.73
2017-10-18T21:18:48.942Z,99695.03
2017-10-18T21:21:14.916Z,99695.45
2017-10-18T21:23:40.906Z,99694.69
2017-10-18T21:26:06.882Z,99695.06
2017-10-18T21:28:32.899Z,99692.44
2017-10-18T21:30:58.842Z,99690.73
2017-10-18T21:33:24.780Z,99696.25
2017-10-18T21:35:50.740Z,99688.70
2017-10-18T21:38:16.696Z,99694.77
2017-10-18T21:40:42.640Z,99689.13
2017-10-18T21:43:08.642Z,99686.64
2017-10-18T21:45:34.600Z,99687.24
2017-10-18T21:48:00.560Z,99693.44
2017-10-18T21:50:26.592Z,99692.59
2017-10-18T21:52:52.594Z,99693.29
2017-10-18T21:55:18.540Z,99689.87
2017-10-18T21:57:44.486Z,99696.98
2017-10-18T22:00:10.494Z,99703.80
2017-10-18T22:02:36.486Z,99701.20
2017-10-18T22:05:02.456Z,99697.73
2017-10-18T22:07:28.423Z,99697.31
2017-10-18T22:09:54.446Z,99698.23
2017-10-18T22:12:20.454Z,99693.72
2017-10-18T22:14:46.430Z,99694.59
2017-10-18T22:17:12.375Z,99701.66
2017-10-18T22:19:38.378Z,99699.96
2017-10-18T22:22:04.321Z,99700.06
2017-10-18T22:24:30.293Z,99703.33
2017-10-18T22:26:56.242Z,99701.22
2017-10-18T22:29:22.192Z,99700.52
2017-10-18T22:31:48.181Z,99702.50
2017-10-18T22:34:14.134Z,99707.74
2017-10-18T22:36:40.095Z,99703.51
2017-10-18T22:39:06.039Z,99707.23
2017-10-18T22:41:32.008Z,99710.70
2017-10-18T22:43:57.967Z,99704.34
2017-10-18T22:46:23.912Z,99710.27
2017-10-18T22:48:49.858Z,99709.45
2017-10-18T22:51:15.926Z,99709.97
2017-10-18T22:53:41.896Z,99705.30
2017-10-18T22:56:07.850Z,99708.14
2017-10-18T22:58:33.790Z,99708.12
2017-10-18T23:00:59.773Z,99707.83
2017-10-18T23:03:25.751Z,99710.34
2017-10-18T23:05:51.705Z,99713.22
2017-10-18T23:08:17.658Z,99714.58
2017-10-18T23:10:43.618Z,99710.77
2017-10-18T23:13:09.562Z,99706.15
2017-10-18T23:15:35.527Z,99697.66
2017-10-18T23:18:01.461Z,99699.83
2017-10-18T23:20:27.419Z,99702.34
2017-10-18T23:22:53.367Z,99702.80
2017-10-18T23:25:19.354Z,99702.34
2017-10-18T23:27:45.295Z,99701.10
2017-10-18T23:30:11.266Z,99707.80
2017-10-18T23:32:37.221Z,99705.75
2017-10-18T23:35:03.161Z,99703.20
2017-10-18T23:37:29.140Z,99704.02
2017-10-18T23:39:55.119Z,99697.68
2017-10-18T23:42:21.059Z,99700.34
2017-10-18T23:44:47.075Z,99698.17
2017-10-18T23:47:13.023Z,99696.44
2017-10-18T23:49:38.969Z,99687.62
2017-10-18T23:52:04.971Z,99694.38
2017-10-18T23:54:30.945Z,99699.38
2017-10-18T23:56:56.916Z,99688.33
2017-10-18T23:59:22.868Z,99706.06
